Sant Julià de Vilatorta





Hora UTC 21:00
Temperatura 18.4 ºC
Humitat 79.4 %
Pressió 1019.2 hPa
Pluja 0.1 mm
Velocitat vent 1.5 km/h
Direcció vent SE
Radiació solar 0.0 W/m²

Dades diàries 2022-08-19



Hora UTC (hivern +1h; estiu +2h)
Temperatura (ºC) Humitat (%) Pressió (hPa) Velocitat vent (km/h) Precipitació (mm) Radiació solar (W/m²)
Hora UTC Aire Humitat Pressió Vel. Dir. Vel. Max Dir. Intent. màx 5 min. Rad. Sol.
00:05 12.9 97.3 1016.6 2.0 ESE 2.0 ESE 0.0 0.0
00:10 12.9 97.4 1016.6 1.7 SSW 2.8 SSW 0.0 0.0
00:15 12.8 97.4 1016.6 2.1 ENE 4.0 ENE 0.0 0.0
00:20 12.7 97.4 1016.5 2.8 ESE 4.8 E 0.0 0.0
00:25 12.7 97.5 1016.6 1.8 SSW 2.7 SW 0.0 0.0
00:30 12.8 97.5 1016.5 2.8 S 4.7 S 0.1 0.0
00:35 12.6 97.4 1016.5 2.4 SSW 4.4 S 0.0 0.0
00:40 12.5 97.4 1016.6 1.0 SW 2.6 SSW 0.0 0.2
00:45 12.6 97.6 1016.6 1.8 SSE 4.1 SSW 0.0 0.3
00:50 12.9 97.7 1016.6 1.4 WSW 3.6 WNW 0.0 0.3
00:55 13.1 97.8 1016.6 1.0 W 2.6 N 0.0 0.2
01:00 13.3 97.8 1016.6 3.9 NNW 6.8 NNW 0.0 0.0
01:05 13.2 97.8 1016.5 3.3 NNW 7.0 NNW 0.0 0.0
01:10 13.1 97.7 1016.5 1.5 ENE 3.8 E 0.0 0.0
01:15 13.1 97.8 1016.5 2.0 S 4.7 SSW 0.0 0.0
01:20 13.1 97.8 1016.5 2.9 SSE 4.7 SSE 0.0 0.0
01:25 13.1 97.9 1016.5 3.1 SSE 6.0 SSE 0.0 0.0
01:30 13.2 98.0 1016.4 2.9 S 4.5 SSW 0.0 0.0
01:35 13.1 98.0 1016.5 3.6 SSE 5.7 SSE 0.0 0.0
01:40 13.1 98.0 1016.5 3.3 SSE 5.3 SSE 0.0 0.0
01:45 13.0 98.0 1016.5 2.2 S 3.6 S 0.0 0.0
01:50 13.0 98.0 1016.6 1.1 ESE 2.4 SSE 0.0 0.0
01:55 12.9 98.0 1016.6 2.7 SSE 5.2 SSE 0.0 0.0
02:00 12.8 98.1 1016.6 3.4 SSE 5.3 SSE 0.0 0.0
02:05 12.8 98.1 1016.7 2.4 ESE 4.7 ENE 0.0 0.0
02:10 12.6 98.1 1016.8 3.0 ENE 5.2 E 0.0 0.0
02:15 12.5 98.1 1016.7 3.1 ESE 4.5 ESE 0.0 0.0
02:20 12.5 98.1 1016.8 2.4 ESE 4.6 E 0.0 0.0
02:25 12.4 98.2 1016.7 3.2 SSE 5.5 SE 0.0 0.0
02:30 12.5 98.2 1016.7 2.3 SSE 4.5 SSE 0.0 0.0
02:35 12.5 98.3 1016.7 2.6 SSW 3.9 SW 0.0 0.0
02:40 12.4 98.3 1016.7 1.3 SSW 2.9 SW 0.0 0.0
02:45 12.2 98.2 1016.7 0.8 WNW 1.7 WNW 0.0 0.0
02:50 12.0 98.2 1016.7 1.3 W 2.1 WSW 0.0 0.0
02:55 11.9 98.2 1016.7 1.0 WSW 2.9 SW 0.0 0.0
03:00 11.8 98.3 1016.7 2.2 SW 4.2 SW 0.0 0.0
03:05 11.9 98.3 1016.7 1.4 SW 4.0 WNW 0.0 0.2
03:10 12.1 98.4 1016.8 2.0 W 5.9 WNW 0.0 0.2
03:15 12.2 98.4 1016.9 1.3 NNE 2.9 NNE 0.0 0.0
03:20 12.2 98.4 1016.9 2.5 W 4.6 W 0.0 0.0
03:25 12.1 98.4 1016.8 1.7 S 4.4 W 0.0 0.0
03:30 12.1 98.5 1016.8 1.3 SSW 3.2 SSW 0.0 0.0
03:35 12.0 98.4 1016.8 1.1 WNW 3.1 WSW 0.0 0.0
03:40 12.0 98.4 1016.9 1.6 WSW 3.0 W 0.0 0.0
03:45 12.0 98.5 1017.0 0.9 NNE 2.1 E 0.0 0.0
03:50 12.0 98.5 1017.1 1.3 ENE 3.2 ENE 0.0 0.0
03:55 12.1 98.5 1017.1 2.3 ESE 4.3 ESE 0.0 0.0
04:00 12.1 98.5 1017.2 2.4 SSE 4.5 SE 0.0 0.0
04:05 12.1 98.5 1017.2 2.3 SE 4.5 SSE 0.0 0.0
04:10 11.9 98.5 1017.1 2.6 E 4.3 SE 0.0 0.0
04:15 11.9 98.5 1017.1 2.5 SE 5.0 S 0.0 0.0
04:20 11.9 98.5 1017.1 2.7 SSE 4.7 SSE 0.0 0.0
04:25 11.8 98.5 1017.1 1.6 SSE 3.0 S 0.0 0.0
04:30 11.8 98.6 1017.2 1.2 SSW 2.4 SSW 0.0 0.0
04:35 11.7 98.6 1017.2 1.0 WSW 2.0 WSW 0.0 0.0
04:40 11.6 98.6 1017.3 0.6 SSE 1.3 SW 0.0 0.0
04:45 11.5 98.6 1017.3 1.6 ENE 2.8 ENE 0.0 0.0
04:50 11.5 98.6 1017.3 2.2 NNE 4.9 NNE 0.0 0.1
04:55 11.5 98.6 1017.4 2.4 NNE 4.3 NNE 0.0 0.4
05:00 11.5 98.6 1017.5 2.6 N 4.4 NNE 0.0 1.1
05:05 11.4 98.6 1017.5 2.2 NNW 4.2 N 0.0 1.8
05:10 11.3 98.6 1017.5 3.1 NE 5.6 NNE 0.0 2.8
05:15 11.2 98.6 1017.5 2.1 N 4.9 ENE 0.0 4.5
05:20 11.2 98.6 1017.5 2.0 SSE 4.8 SSE 0.0 6.3
05:25 11.1 98.7 1017.5 3.5 SSE 5.0 SE 0.0 10.9
05:30 11.1 98.7 1017.6 2.6 S 4.2 SSE 0.0 16.4
05:35 11.1 98.7 1017.6 1.7 W 4.0 WNW 0.0 24.2
05:40 11.2 98.7 1017.7 1.8 WNW 4.4 WNW 0.0 26.8
05:45 11.3 98.7 1017.6 1.0 N 2.8 WNW 0.0 26.5
05:50 11.3 98.7 1017.7 1.6 N 5.0 N 0.0 34.3
05:55 11.4 98.7 1017.8 5.1 NNW 9.0 NNW 0.0 29.4
06:00 11.4 98.7 1018.0 2.4 NNW 5.4 NW 0.0 30.6
06:05 11.5 98.8 1018.0 2.1 NW 5.2 NW 0.0 35.4
06:10 11.5 98.7 1018.0 3.0 WNW 4.8 WNW 0.0 35.8
06:15 11.4 98.7 1018.0 1.3 W 3.7 W 0.0 36.0
06:20 11.4 98.8 1018.0 1.5 SE 4.0 SSE 0.0 39.2
06:25 11.4 98.8 1018.1 2.6 SSE 4.7 SSE 0.0 49.6
06:30 11.4 98.8 1018.1 2.2 SSW 5.1 SSW 0.0 64.3
06:35 11.5 98.8 1018.1 3.6 S 6.5 SSE 0.0 85.5
06:40 11.5 98.8 1018.1 3.0 SSE 4.8 S 0.0 110.5
06:45 11.5 98.8 1018.1 3.7 SE 5.8 SSE 0.0 115.2
06:50 11.5 98.8 1018.1 4.4 SSE 8.3 SSE 0.0 130.9
06:55 11.6 98.8 1018.1 3.4 SE 5.3 ESE 0.0 161.9
07:00 11.8 98.7 1018.1 1.9 E 4.4 E 0.0 233.1
07:05 12.1 98.7 1018.1 2.7 ENE 5.6 E 0.0 278.6
07:10 12.3 98.7 1018.3 2.3 WNW 5.1 NW 0.0 246.5
07:15 12.6 98.7 1018.4 2.7 WSW 6.2 WSW 0.0 212.0
07:20 12.7 98.7 1018.5 3.8 WSW 9.3 SSW 0.0 222.1
07:25 12.5 98.8 1018.5 4.6 SSW 7.6 SSW 0.0 194.3
07:30 12.3 98.8 1018.4 1.3 SSW 3.7 SW 0.0 262.6
07:35 12.3 98.7 1018.4 2.9 SE 5.3 SE 0.0 256.9
07:40 12.5 98.7 1018.4 3.0 ENE 8.7 E 0.0 327.6
07:45 13.0 98.7 1018.4 3.6 ENE 7.9 E 0.0 445.3
07:50 13.8 98.6 1018.3 2.1 ENE 4.9 NE 0.0 458.4
07:55 14.0 98.7 1018.3 2.7 NNW 4.9 NNW 0.0 474.0
08:00 14.1 98.7 1018.3 4.8 NW 8.7 WNW 0.0 489.9
08:05 14.3 98.7 1018.4 5.7 NW 8.4 NW 0.0 505.9
08:10 14.4 98.7 1018.4 5.5 NNW 8.4 NNW 0.0 522.1
08:15 14.3 98.5 1018.4 4.9 NNW 8.7 N 0.0 535.8
08:20 14.4 98.2 1018.4 4.1 NNW 7.7 NNW 0.0 549.7
08:25 14.8 97.4 1018.4 3.7 NNW 7.6 NNW 0.0 563.7
08:30 15.0 95.3 1018.4 4.2 NW 6.8 NW 0.0 577.1
08:35 15.4 92.0 1018.4 3.4 NNE 6.9 N 0.0 594.0
08:40 15.7 87.1 1018.4 3.7 NNW 6.2 NNW 0.0 606.7
08:45 16.0 85.9 1018.4 2.2 NNE 5.3 N 0.0 618.6
08:50 16.7 83.3 1018.3 2.4 NNW 7.0 NW 0.0 633.9
08:55 17.1 81.7 1018.3 2.7 NNW 7.3 NW 0.0 647.6
09:00 17.2 78.0 1018.3 3.8 N 7.2 NW 0.0 659.3
09:05 17.4 76.5 1018.4 2.2 NW 4.2 NNE 0.0 672.5
09:10 18.0 75.0 1018.4 1.4 E 5.7 NNW 0.0 684.5
09:15 18.4 72.1 1018.4 3.2 NW 6.6 NNW 0.0 698.5
09:20 18.5 72.8 1018.4 3.7 NW 6.8 W 0.0 709.0
09:25 18.7 71.4 1018.4 3.7 WNW 6.8 NNE 0.0 718.1
09:30 19.1 70.5 1018.3 4.1 NW 8.0 NNW 0.0 730.7
09:35 18.9 67.2 1018.3 3.2 NW 6.2 NNW 0.0 741.5
09:40 19.1 64.3 1018.3 2.8 NW 5.9 NW 0.0 752.8
09:45 19.4 62.1 1018.3 2.9 N 6.3 NW 0.0 765.2
09:50 20.0 58.8 1018.3 2.5 N 6.7 WNW 0.0 775.4
09:55 20.1 57.7 1018.3 3.1 NE 7.0 NNW 0.0 785.4
10:00 20.2 57.2 1018.3 4.2 NW 6.8 NNW 0.0 796.3
10:05 20.5 55.0 1018.3 3.3 W 8.6 WNW 0.0 806.0
10:10 21.0 52.6 1018.4 4.4 WNW 8.8 NNW 0.0 816.0
10:15 20.8 51.1 1018.3 5.4 N 10.8 N 0.0 826.0
10:20 20.6 50.6 1018.3 4.9 NNE 8.6 NNE 0.0 834.0
10:25 21.2 49.9 1018.3 4.3 WNW 8.9 NNW 0.0 843.0
10:30 21.6 49.1 1018.3 4.3 N 9.0 NNW 0.0 850.0
10:35 21.8 46.4 1018.3 4.4 WNW 11.7 NNW 0.0 857.0
10:40 21.9 44.1 1018.2 5.6 N 9.9 N 0.0 865.0
10:45 22.2 45.1 1018.2 3.0 N 9.0 NW 0.0 874.0
10:50 22.5 44.6 1018.2 4.8 N 10.8 N 0.0 882.0
10:55 22.8 43.5 1018.2 3.2 NW 8.8 NNW 0.0 888.0
11:00 23.3 38.7 1018.1 1.9 SSW 4.1 SSW 0.0 891.0
11:05 23.5 39.0 1018.1 2.3 S 6.0 NE 0.0 895.0
11:10 24.0 37.1 1018.1 4.5 WNW 10.4 N 0.0 901.0
11:15 23.4 37.9 1018.1 4.6 NNW 8.5 N 0.0 901.0
11:20 23.4 35.9 1018.1 4.3 WNW 10.7 WNW 0.0 905.0
11:25 24.0 36.1 1018.1 3.0 WSW 7.5 W 0.0 906.0
11:30 24.2 37.0 1018.1 3.4 NNE 6.6 N 0.0 909.0
11:35 24.4 39.4 1018.0 4.9 NW 10.8 N 0.0 915.0
11:40 24.6 38.4 1018.0 4.0 W 8.7 WNW 0.0 916.0
11:45 24.8 38.0 1017.9 2.9 NNW 9.3 WNW 0.0 917.0
11:50 25.1 37.1 1017.9 3.3 SW 8.7 W 0.0 918.0
11:55 25.2 37.2 1017.8 2.8 SSW 7.6 SSW 0.0 919.0
12:00 25.5 35.0 1017.8 5.8 NW 12.0 NW 0.0 921.0
12:05 25.0 35.3 1017.7 5.3 NW 10.9 NW 0.0 924.0
12:10 25.0 34.9 1017.7 5.4 NW 10.9 NW 0.0 928.0
12:15 24.9 33.8 1017.6 5.1 N 8.5 N 0.0 922.0
12:20 24.8 32.0 1017.6 5.6 NE 9.1 NNE 0.0 924.0
12:25 25.4 31.8 1017.5 4.3 NE 10.9 ESE 0.0 919.0
12:30 25.6 32.4 1017.5 4.0 ESE 13.1 SE 0.0 912.0
12:35 25.6 32.5 1017.5 6.4 SSW 11.6 SSW 0.0 910.0
12:40 25.9 31.6 1017.5 5.6 SSW 9.8 SSW 0.0 912.0
12:45 26.1 29.4 1017.5 4.7 WNW 9.9 WNW 0.0 912.0
12:50 26.1 27.0 1017.4 2.0 N 5.9 NNW 0.0 899.0
12:55 26.5 26.6 1017.4 3.1 WSW 6.9 NW 0.0 891.0
13:00 26.9 24.6 1017.4 6.7 SSW 12.3 SW 0.0 892.0
13:05 26.8 23.4 1017.4 3.6 SSW 8.4 SSW 0.0 884.0
13:10 26.9 22.4 1017.3 4.3 SE 8.4 SSW 0.0 878.0
13:15 26.9 23.6 1017.3 5.4 SSE 15.6 SE 0.0 869.0
13:20 26.9 23.1 1017.2 5.8 SE 11.9 SSE 0.0 863.0
13:25 27.1 23.5 1017.2 5.9 S 11.4 SW 0.0 857.0
13:30 27.6 24.6 1017.1 4.2 SW 10.0 SSW 0.0 848.0
13:35 27.6 24.6 1017.1 6.0 SSW 10.2 SSW 0.0 838.0
13:40 27.5 25.9 1017.0 4.5 S 9.4 S 0.0 830.0
13:45 27.8 26.5 1017.0 4.8 SW 10.5 SW 0.0 821.0
13:50 27.5 26.8 1017.0 4.8 SSW 12.9 SSW 0.0 814.0
13:55 27.5 25.2 1017.0 6.9 SSW 16.1 SW 0.0 807.0
14:00 27.4 25.9 1017.0 4.9 SW 10.5 SSW 0.0 798.5
14:05 27.8 24.5 1017.0 4.1 SSW 7.2 SW 0.0 781.2
14:10 27.6 24.8 1016.9 6.6 SSE 10.0 SSW 0.0 770.6
14:15 27.4 26.9 1016.9 4.5 S 9.4 SSE 0.0 760.9
14:20 28.3 25.6 1016.9 5.3 NW 10.2 NNW 0.0 749.9
14:25 28.3 26.6 1016.9 5.3 SW 12.2 S 0.0 739.7
14:30 28.3 27.4 1017.0 4.2 WSW 10.6 W 0.0 732.8
14:35 27.9 26.2 1016.9 4.9 N 8.9 N 0.0 717.7
14:40 27.6 26.8 1016.9 6.2 NW 10.4 NW 0.0 715.6
14:45 27.7 28.7 1016.9 5.0 N 10.2 NNW 0.0 440.0
14:50 27.7 29.2 1016.8 4.0 S 7.1 SSE 0.0 563.1
14:55 27.9 29.2 1016.8 5.8 S 10.1 S 0.0 494.7
15:00 27.6 29.4 1016.8 4.5 SSW 12.9 S 0.0 697.8
15:05 27.6 31.6 1016.8 6.4 SSW 20.0 SW 0.0 636.4
15:10 27.4 37.5 1016.8 11.4 S 22.4 SW 0.0 675.0
15:15 27.1 39.0 1016.8 9.0 S 17.1 SSE 0.0 649.8
15:20 27.0 39.3 1016.7 9.1 S 16.6 SSE 0.0 625.1
15:25 26.9 39.2 1016.7 7.9 S 13.8 SW 0.0 628.4
15:30 27.1 39.8 1016.7 3.9 S 9.8 SW 0.0 574.6
15:35 27.3 38.1 1016.7 6.7 SSW 10.5 S 0.0 563.7
15:40 27.4 36.3 1016.7 8.0 S 22.9 SSW 0.0 607.6
15:45 27.6 36.0 1016.7 6.3 SSW 11.8 SSW 0.0 600.8
15:50 27.6 37.2 1016.7 9.5 SSW 17.3 SSW 0.0 579.2
15:55 27.1 38.9 1016.7 7.5 S 16.6 SE 0.0 567.0
16:00 27.0 39.2 1016.7 7.7 SSW 17.3 SE 0.0 538.4
16:05 26.8 40.0 1016.7 7.5 S 18.8 SSW 0.0 497.7
16:10 27.1 35.9 1016.7 8.0 S 12.4 SSE 0.0 469.1
16:15 27.5 35.5 1016.7 6.0 SSW 15.1 S 0.0 447.4
16:20 27.5 35.5 1016.7 9.0 SSW 20.5 SSW 0.0 436.6
16:25 27.1 34.4 1016.7 6.7 S 12.7 SSW 0.0 423.2
16:30 27.1 35.8 1016.7 7.0 SSW 14.0 S 0.0 399.8
16:35 27.2 36.4 1016.7 7.3 S 14.2 SSW 0.0 398.3
16:40 27.1 38.0 1016.8 8.2 S 15.9 SSE 0.0 368.5
16:45 26.6 41.3 1016.8 9.3 S 19.7 SE 0.0 337.1
16:50 26.2 42.9 1016.9 9.9 S 17.7 S 0.0 315.8
16:55 26.0 43.1 1016.9 8.5 S 17.1 SSE 0.0 296.6
17:00 25.9 44.4 1016.8 7.3 S 12.8 S 0.0 277.4
17:05 25.9 44.4 1016.9 7.4 SSE 14.4 SSE 0.0 257.4
17:10 25.5 45.5 1016.8 6.9 S 20.8 SE 0.0 237.4
17:15 25.4 47.3 1016.9 12.6 SSE 20.5 SSE 0.0 221.7
17:20 25.1 48.4 1016.8 9.0 SSE 17.7 SSE 0.0 204.4
17:25 25.0 49.4 1016.9 10.5 SSE 21.6 S 0.0 190.0
17:30 24.7 50.9 1016.9 10.9 SSE 23.0 SSE 0.0 175.3
17:35 24.5 51.6 1016.9 13.0 SSE 22.7 SSE 0.0 160.1
17:40 24.2 52.5 1017.0 11.8 SSE 19.2 SE 0.0 147.4
17:45 24.2 52.9 1017.0 9.5 SSE 16.5 SSE 0.0 131.1
17:50 24.0 53.3 1017.0 9.6 SSE 17.2 SSE 0.0 112.4
17:55 23.9 54.0 1017.1 9.1 SSE 16.8 SSE 0.0 97.3
18:00 23.7 55.0 1017.2 7.6 SSE 17.2 SSE 0.0 85.4
18:05 23.5 55.7 1017.2 7.5 SSE 16.1 SE 0.0 71.7
18:10 23.4 56.1 1017.3 8.8 SSE 15.0 SSE 0.0 37.1
18:15 23.2 56.8 1017.3 4.2 S 8.5 SSE 0.0 20.1
18:20 23.0 57.8 1017.4 7.8 SSE 17.2 SSE 0.0 16.8
18:25 22.8 58.5 1017.4 4.3 SSE 9.3 SE 0.0 13.6
18:30 22.6 59.5 1017.5 4.9 S 11.9 SSW 0.0 11.5
18:35 22.4 60.2 1017.6 5.4 S 10.5 SSE 0.0 9.1
18:40 22.2 60.9 1017.7 6.7 S 13.7 SSE 0.0 6.3
18:45 22.1 61.4 1017.8 5.8 SSW 10.2 S 0.0 3.9
18:50 21.9 62.5 1017.9 4.9 SSW 8.7 S 0.0 1.8
18:55 21.7 62.9 1017.9 6.6 S 11.1 S 0.0 0.9
19:00 21.7 62.9 1018.0 5.5 S 8.5 SSW 0.0 0.1
19:05 21.6 63.2 1018.1 5.7 SSE 9.4 SSE 0.0 0.0
19:10 21.5 63.8 1018.2 4.0 SSW 8.2 S 0.0 0.0
19:15 21.3 64.7 1018.2 3.3 SSE 6.8 S 0.0 0.0
19:20 21.1 65.2 1018.3 2.6 SSE 6.1 SSE 0.0 0.0
19:25 20.8 66.0 1018.3 2.6 SE 5.0 SSE 0.0 0.0
19:30 20.7 66.5 1018.4 3.2 SE 6.4 SE 0.0 0.0
19:35 20.7 67.0 1018.4 2.2 SSE 4.1 SSE 0.0 0.0
19:40 20.6 67.5 1018.4 2.0 SE 4.5 SE 0.0 0.0
19:45 20.4 67.9 1018.5 1.3 SSE 2.4 SE 0.0 0.0
19:50 20.1 68.8 1018.5 1.2 SE 4.2 ESE 0.0 0.0
19:55 20.0 69.7 1018.6 2.6 ESE 5.7 ESE 0.0 0.3
20:00 20.0 69.9 1018.7 2.1 SSE 5.3 SE 0.0 0.1
20:05 19.9 70.2 1018.7 1.0 N 2.1 NW 0.0 0.0
20:10 19.7 71.2 1018.8 2.6 SSE 4.8 SE 0.0 0.1
20:15 19.7 71.9 1018.9 3.4 SSW 5.3 SW 0.0 0.0
20:20 19.4 74.2 1018.9 2.1 S 3.9 S 0.0 0.0
20:25 19.3 75.6 1019.0 2.0 S 4.2 SSE 0.0 0.0
20:30 19.3 75.0 1019.1 2.3 SSE 5.1 SSE 0.0 0.0
20:35 19.1 75.7 1019.1 1.2 ESE 2.1 E 0.0 0.0
20:40 18.8 77.7 1019.1 1.2 SE 2.6 SSE 0.0 0.0
20:45 18.7 78.5 1019.1 2.0 SE 3.6 SSE 0.0 0.0
20:50 18.6 78.7 1019.1 2.5 ESE 5.3 ESE 0.0 0.1
20:55 18.5 78.8 1019.2 2.6 SE 5.3 ESE 0.0 0.1
21:00 18.4 79.4 1019.2 1.5 SE 3.2 ESE 0.0 0.0
Màxima 28.4 98.8 1019.2 13.0 SSE 23.0 SSE 0.1 928.0
Mínima 11.0 22.4 1016.4
Total 0.1